Latest Weather Observations for Camooweal

IDQ60801

Issued at 1:02 pm EST Saturday 1 October 2016 (issued every 30 minutes, with the page automatically refreshed every 10 minutes)

About weather observations | Map of weather stations | Latest weather observations for QLD | Other Formats
Station Details ID: 037010 Name: CAMOOWEAL TOWNSHIP Lat: -19.92 Lon: 138.12 Height: 231.2 m
Data from the previous 72 hours. | See also: Recent months at Camooweal
Date/Time
EST
Temp
°C
App
Temp
°C
Dew
Point
°C
Rel
Hum
%
Delta-T
°C
Wind Press
QNH
hPa
Press
MSL
hPa
Rain since
9am
mm
Dir  Spd
km/h
Gust
km/h
Spd
kts
Gust
kts
01/01:00pm 32.6 27.8 2.6 15 15.4 NNE 17 28 9 15 1012.0 1010.5 0.0
01/12:30pm 31.9 26.6 3.0 16 14.9 NNE 20 32 11 17 1012.5 1011.1 0.0
01/12:00pm 31.1 25.5 1.4 15 14.8 NNE 20 30 11 16 1013.2 1011.8 0.0
01/11:30am 30.4 24.6 -0.1 14 14.7 NNE 20 30 11 16 1013.6 1012.2 0.0
01/11:00am 29.9 24.9 1.4 16 14.1 NE 17 26 9 14 1013.9 1012.5 0.0
01/10:30am 28.9 23.3 -0.3 15 13.9 NNE 19 28 10 15 1014.2 1012.8 0.0
01/10:00am 27.6 22.3 -0.5 16 13.2 NE 17 24 9 13 1014.4 1013.0 0.0
01/09:30am 26.6 21.2 1.1 19 12.3 NE 19 24 10 13 1014.4 1013.4 0.0
01/09:00am 25.4 20.3 0.8 20 11.6 NE 17 22 9 12 1014.3 1013.3 0.0
01/08:30am 23.7 19.0 0.7 22 10.7 NNE 15 22 8 12 1014.3 1013.3 0.0
01/08:00am 22.1 17.2 1.7 26 9.6 NNE 17 24 9 13 1013.9 1012.9 0.0
01/07:30am 19.4 15.9 3.6 35 7.6 NNE 11 17 6 9 1013.5 1012.5 0.0
01/07:00am 16.6 13.7 4.6 45 5.7 NNE 9 11 5 6 1013.4 1012.3 0.0
01/06:30am 16.0 13.1 4.7 47 5.4 NNE 9 13 5 7 1012.9 1011.8 0.0
01/06:00am 14.7 13.6 6.8 59 3.9 NNW 2 7 1 4 1012.8 1011.7 0.0
01/05:30am 14.9 13.6 6.0 55 4.3 NW 2 6 1 3 1012.3 1011.2 0.0
01/05:00am 16.4 13.8 4.4 45 5.7 NE 7 11 4 6 1011.5 1010.4 0.0
01/04:30am 16.2 13.5 5.8 50 5.1 ENE 9 11 5 6 1011.0 1009.9 0.0
01/04:00am 15.1 14.0 5.3 52 4.7 CALM 0 0 0 0 1011.5 1010.4 0.0
01/03:30am 16.5 13.3 5.2 47 5.5 NNE 11 13 6 7 1011.6 1010.5 0.0
01/03:00am 16.5 14.3 5.2 47 5.5 N 6 9 3 5 1011.8 1010.7 0.0
01/02:30am 15.9 12.7 4.9 48 5.3 E 11 15 6 8 1011.5 1010.4 0.0
01/02:00am 16.7 13.3 4.1 43 6.0 ESE 11 13 6 7 1011.5 1010.4 0.0
01/01:30am 17.9 14.4 3.4 38 6.8 ENE 11 15 6 8 1012.0 1010.9 0.0
01/01:00am 18.3 14.0 3.0 36 7.2 E 15 17 8 9 1011.8 1010.7 0.0
01/12:30am 18.8 14.3 2.2 33 7.7 SE 15 20 8 11 1011.8 1010.7 0.0
01/12:00am 19.1 15.0 2.5 33 7.8 SE 13 17 7 9 1012.0 1010.9 0.0
 
Date/Time
EST
Temp
°C
App
Temp
°C
Dew
Point
°C
Rel
Hum
%
Delta-T
°C
Wind Press
QNH
hPa
Press
MSL
hPa
Rain since
9am
mm
Dir  Spd
km/h
Gust
km/h
Spd
kts
Gust
kts
30/11:30pm 19.2 15.5 2.1 32 7.9 SE 11 15 6 8 1011.9 1010.8 0.0
30/11:00pm 20.6 16.1 2.0 29 8.7 SSE 15 20 8 11 1012.2 1011.1 0.0
30/10:30pm 21.4 16.5 2.2 28 9.1 SSE 17 24 9 13 1012.3 1011.2 0.0
30/10:00pm 21.4 16.6 2.6 29 8.9 SSE 17 20 9 11 1012.4 1011.3 0.0
30/09:30pm 21.1 17.4 4.2 33 8.3 SSE 13 17 7 9 1012.2 1011.1 0.0
30/09:00pm 20.8 17.4 6.0 38 7.5 SSE 13 15 7 8 1011.8 1010.7 0.0
30/08:30pm 21.3 17.8 5.6 36 7.9 SSE 13 13 7 7 1011.4 1010.3 0.0
30/08:00pm 22.1 19.1 5.9 35 8.3 SSE 11 15 6 8 1011.0 1009.9 0.0
30/07:30pm 23.4 20.7 5.8 32 9.0 SSE 9 11 5 6 1010.9 1009.8 0.0
30/07:00pm 24.1 21.2 6.4 32 9.2 S 11 13 6 7 1010.7 1009.6 0.0
30/06:30pm 27.0 24.1 4.7 24 11.5 S 9 13 5 7 1010.4 1009.4 0.0
30/06:00pm 29.2 26.3 1.7 17 13.6 SSW 6 9 3 5 1010.3 1009.3 0.0
30/05:30pm 30.3 27.4 1.7 16 14.2 SW 6 9 3 5 1010.1 1009.1 0.0
30/05:00pm 30.1 28.1 2.4 17 14.0 ESE 2 7 1 4 1009.9 1008.9 0.0
30/04:30pm 29.6 26.4 2.8 18 13.5 ESE 9 13 5 7 1009.6 1008.5 0.0
30/04:00pm 29.6 26.8 2.0 17 13.8 E 6 15 3 8 1009.9 1008.9 0.0
30/03:30pm 29.2 25.5 -0.1 15 14.0 SSW 9 17 5 9 1010.3 1009.3 0.0
30/03:00pm 29.3 25.5 1.7 17 13.7 SSW 11 22 6 12 1010.9 1009.8 0.0
30/02:30pm 28.7 24.8 1.3 17 13.4 SE 11 17 6 9 1011.3 1010.2 0.0
30/02:00pm 28.8 25.4 -0.4 15 13.9 ENE 7 11 4 6 1011.8 1010.7 0.0
30/01:30pm 27.9 24.6 -1.1 15 13.5 SE 6 11 3 6 1012.4 1011.3 0.0
30/01:00pm 27.4 23.2 -0.6 16 13.1 E 11 17 6 9 1012.8 1011.7 0.0
30/12:30pm 26.4 21.4 -1.4 16 12.7 S 15 22 8 12 1013.4 1012.3 0.0
30/12:00pm 26.3 21.5 0.1 18 12.3 SSE 15 20 8 11 1013.9 1012.9 0.0
30/11:30am 25.4 19.8 1.5 21 11.5 SSE 20 26 11 14 1014.1 1013.1 0.0
30/11:00am 24.2 18.9 1.8 23 10.7 SSE 19 28 10 15 1014.4 1013.4 0.0
30/10:30am 23.8 18.5 3.2 26 10.1 SSE 20 30 11 16 1014.7 1013.7 0.0
30/10:00am 22.8 18.4 2.8 27 9.6 SE 15 24 8 13 1015.2 1014.1 0.0
30/09:30am 21.7 18.0 4.3 32 8.6 ESE 13 17 7 9 1015.0 1014.0 0.0
30/09:00am 20.7 16.1 3.9 33 8.2 E 17 22 9 12 1014.8 1013.8 0.2
30/08:30am 19.5 15.4 4.4 37 7.3 ENE 15 20 8 11 1014.6 1013.6 0.2
30/08:00am 17.6 14.0 5.2 44 6.0 ENE 13 17 7 9 1014.2 1013.2 0.2
30/07:30am 15.6 13.3 5.8 52 4.8 NE 7 11 4 6 1014.0 1013.0 0.2
30/07:00am 12.8 10.6 5.5 61 3.5 NE 6 7 3 4 1013.8 1012.8 0.2
30/06:30am 12.6 10.0 6.0 64 3.1 N 9 11 5 6 1013.5 1012.5 0.2
30/06:00am 13.2 10.4 5.1 58 3.8 NE 9 9 5 5 1012.7 1011.6 0.2
30/05:30am 13.9 11.1 5.0 55 4.2 NE 9 13 5 7 1012.4 1011.3 0.2
30/05:00am 14.8 11.5 4.5 50 4.8 ENE 11 15 6 8 1012.0 1010.9 0.2
30/04:30am 15.3 10.4 4.1 47 5.2 SE 19 26 10 14 1011.3 1010.2 0.2
30/04:00am 15.4 10.5 4.2 47 5.3 SE 19 24 10 13 1011.3 1010.2 0.2
30/03:30am 15.9 10.9 4.6 47 5.4 SE 20 26 11 14 1011.4 1010.3 0.2
30/03:00am 16.2 11.3 4.9 47 5.4 SE 20 26 11 14 1011.5 1010.4 0.2
30/02:30am 16.9 11.2 4.9 45 5.8 SE 24 32 13 17 1011.6 1010.5 0.2
30/02:00am 17.5 12.2 5.1 44 6.0 SSE 22 32 12 17 1011.5 1010.4 0.2
30/01:30am 17.5 11.7 6.1 47 5.6 SE 26 32 14 17 1011.7 1010.6 0.2
30/01:00am 17.9 12.5 6.4 47 5.8 SSE 24 30 13 16 1012.0 1010.9 0.2
30/12:30am 18.7 13.3 6.2 44 6.3 SSE 24 33 13 18 1012.2 1011.1 0.2
30/12:00am 18.2 13.7 7.0 48 5.7 SE 20 26 11 14 1012.5 1011.4 0.2
 
Date/Time
EST
Temp
°C
App
Temp
°C
Dew
Point
°C
Rel
Hum
%
Delta-T
°C
Wind Press
QNH
hPa
Press
MSL
hPa
Rain since
9am
mm
Dir  Spd
km/h
Gust
km/h
Spd
kts
Gust
kts
29/11:30pm 18.9 14.3 6.7 45 6.2 SSE 20 26 11 14 1012.7 1011.6 0.2
29/11:00pm 19.3 15.7 6.8 44 6.4 SSE 15 20 8 11 1012.8 1011.7 0.2
29/10:30pm 20.1 15.8 6.8 42 6.8 SSE 19 24 10 13 1012.9 1011.8 0.2
29/10:00pm 19.9 16.1 7.6 45 6.4 SSE 17 20 9 11 1012.9 1011.8 0.2
29/09:30pm 19.0 16.4 9.2 53 5.2 SSE 13 15 7 8 1012.6 1011.5 0.2
29/09:00pm 19.6 17.4 9.5 52 5.4 SSE 11 15 6 8 1012.2 1011.1 0.2
29/08:30pm 20.4 18.0 9.9 51 5.7 S 13 15 7 8 1011.6 1010.5 0.2
29/08:00pm 20.9 19.0 10.4 51 5.8 SSE 11 13 6 7 1011.1 1010.0 0.2
29/07:30pm 22.0 19.6 9.9 46 6.6 S 13 15 7 8 1010.5 1009.5 0.2
29/07:00pm 23.3 21.3 10.0 43 7.4 S 11 13 6 7 1010.1 1009.1 0.2
29/06:30pm 25.6 22.1 8.6 34 9.3 S 17 20 9 11 1009.7 1008.7 0.2
29/06:00pm 26.8 22.5 7.8 30 10.3 S 20 26 11 14 1009.4 1008.3 0.2
29/05:30pm 27.4 23.2 8.3 30 10.5 S 20 26 11 14 1009.3 1008.2 0.2
29/05:00pm 27.4 23.1 7.8 29 10.7 SSE 20 26 11 14 1009.1 1008.0 0.2
29/04:30pm 26.9 22.2 7.9 30 10.3 S 22 32 12 17 1009.3 1008.2 0.2
29/04:00pm 28.1 23.7 8.9 30 10.7 S 22 30 12 16 1009.4 1008.3 0.2
29/03:30pm 27.1 22.9 9.9 34 9.7 S 22 30 12 16 1009.7 1008.7 0.2
29/03:00pm 27.0 21.8 8.9 32 10.0 S 26 33 14 18 1009.8 1008.8 0.2
29/02:30pm 27.5 22.0 9.3 32 10.1 S 28 35 15 19 1010.0 1009.0 0.2
29/02:00pm 28.9 24.3 12.3 36 9.8 S 28 35 15 19 1010.1 1009.1 0.2
29/01:30pm 28.2 24.9 12.9 38 9.1 S 22 33 12 18 1010.2 1009.2 0.2
29/01:00pm 28.1 25.3 15.4 46 7.8 S 24 37 13 20 1010.7 1009.6 0.2
29/12:30pm 27.4 24.1 15.1 47 7.5 SSE 26 35 14 19 1011.3 1010.2 0.2
29/12:00pm 27.0 24.1 16.0 51 6.8 SSE 26 35 14 19 1011.6 1010.5 0.2
29/11:30am 26.1 22.9 16.4 55 6.0 S 28 37 15 20 1011.9 1010.8 0.2
29/11:00am 24.9 21.8 17.6 64 4.6 S 30 39 16 21 1012.2 1011.1 0.2
29/10:30am 25.2 21.9 18.4 66 4.3 SSW 33 46 18 25 1012.2 1011.1 0.2
29/10:20am 24.1 21.1 19.0 73 3.3 SSW 33 48 18 26 1012.2 1011.1 0.2
29/10:03am 25.7 25.0 19.6 69 4.0 SW 22 50 12 27 1011.9 1010.8 0.2
29/10:00am 27.8 28.6 20.6 65 4.8 WSW 17 30 9 16 1011.8 1010.7 0.2
29/09:30am 26.4 29.4 22.0 77 3.0 W 9 15 5 8 1011.5 1010.4 0.0
29/09:00am 25.3 28.1 21.6 80 2.5 WNW 9 13 5 7 1011.5 1010.4 3.8
29/08:30am 23.3 26.4 21.4 89 1.3 NNW 7 9 4 5 1011.1 1010.0 3.8
29/08:00am 21.9 24.7 20.9 94 0.7 NW 7 9 4 5 1010.8 1009.7 3.8
29/07:30am 21.1 24.6 20.4 96 0.5 NW 2 7 1 4 1010.2 1009.2 3.8
29/07:00am 20.5 24.1 19.8 96 0.5 CALM 0 0 0 0 1010.0 1009.0 3.8
29/06:30am 20.5 24.2 20.0 97 0.3 CALM 0 0 0 0 1009.7 1008.7 3.8
29/06:00am 20.4 24.1 19.9 97 0.3 CALM 0 0 0 0 1009.6 1008.5 3.8
29/05:30am 20.3 23.9 19.8 97 0.3 CALM 0 0 0 0 1009.4 1008.3 3.8
29/05:00am 20.4 22.9 19.9 97 0.3 WSW 6 9 3 5 1009.3 1008.2 3.8
29/04:30am 20.7 24.4 19.9 95 0.5 CALM 0 0 0 0 1009.1 1008.0 3.8
29/04:00am 21.0 23.6 20.0 94 0.6 NW 6 7 3 4 1009.0 1007.9 3.8
29/03:30am 21.1 23.2 20.1 94 0.6 N 9 13 5 7 1009.0 1007.9 3.8
29/03:00am 21.1 22.4 20.1 94 0.6 N 13 15 7 8 1008.9 1007.8 3.8
29/02:30am 21.0 22.3 20.2 95 0.5 N 13 17 7 9 1009.1 1008.0 3.8
29/02:00am 20.7 22.7 19.9 95 0.5 NNE 9 13 5 7 1009.6 1008.5 3.8
29/01:30am 20.7 23.1 20.0 96 0.5 N 7 11 4 6 1010.4 1009.4 3.8
29/01:00am 20.6 22.5 19.8 95 0.5 SW 9 13 5 7 1010.5 1009.5 3.8
29/12:30am 20.8 22.2 19.5 92 0.8 NNE 11 17 6 9 1009.9 1008.9 3.8
29/12:00am 20.5 20.4 19.5 94 0.6 NE 19 26 10 14 1009.5 1008.4 3.8
 
Date/Time
EST
Temp
°C
App
Temp
°C
Dew
Point
°C
Rel
Hum
%
Delta-T
°C
Wind Press
QNH
hPa
Press
MSL
hPa
Rain since
9am
mm
Dir  Spd
km/h
Gust
km/h
Spd
kts
Gust
kts
28/11:30pm 20.6 22.8 19.3 92 0.8 ENE 6 9 3 5 1010.7 1009.6 2.8
28/11:00pm 20.6 22.4 19.6 94 0.6 ENE 9 13 5 7 1010.5 1009.5 2.8
28/10:30pm 20.1 21.7 19.1 94 0.6 SE 9 13 5 7 1011.0 1009.9 2.8
28/10:00pm 20.3 22.2 18.6 90 1.1 SSE 6 11 3 6 1011.8 1010.7 2.0
28/09:30pm 22.1 20.5 17.5 75 2.9 SSW 22 28 12 15 1011.1 1010.0 0.2
28/09:00pm 24.3 21.7 16.0 60 5.1 S 24 33 13 18 1009.8 1008.8 0.0
28/08:30pm 25.2 23.6 16.4 58 5.5 S 20 30 11 16 1009.3 1008.2 0.0
28/08:00pm 26.1 24.3 15.5 52 6.5 S 19 24 10 13 1008.5 1007.4 0.0
28/07:30pm 26.1 26.1 15.2 51 6.7 S 9 11 5 6 1008.1 1007.0 0.0
28/07:00pm 27.1 28.4 14.1 44 7.8 CALM 0 6 0 3 1008.3 1007.2 0.0
28/06:30pm 27.8 27.1 13.3 40 8.6 SW 9 9 5 5 1008.4 1007.3 0.0
28/06:00pm 28.9 27.9 11.0 33 10.4 SSW 7 11 4 6 1008.1 1007.0 0.0
28/05:30pm 29.8 27.1 10.4 30 11.1 SSE 15 20 8 11 1007.6 1006.5 0.0
28/05:00pm 30.9 27.3 9.7 27 12.1 S 19 28 10 15 1007.5 1006.4 0.0
28/04:30pm 31.4 29.2 10.7 28 12.0 S 13 17 7 9 1007.2 1006.1 0.0
28/04:00pm 31.2 26.9 9.4 26 12.4 SSW 22 28 12 15 1007.3 1006.2 0.0
28/03:30pm 32.8 29.9 8.3 22 13.8 W 13 20 7 11 1007.5 1006.4 0.0
28/03:00pm 34.1 31.2 8.0 20 14.7 NW 13 22 7 12 1007.6 1006.5 0.0
28/02:30pm 33.2 30.6 7.9 21 14.2 NW 11 22 6 12 1007.9 1006.8 0.0
28/02:00pm 33.6 30.7 8.3 21 14.3 NW 13 26 7 14 1008.2 1007.1 0.0
28/01:30pm 33.2 29.9 7.9 21 14.2 NNW 15 22 8 12 1008.5 1007.4 0.0

Other Formats:

Comma delimited format used in spreadsheet applications
http://www.bom.gov.au/fwo/IDQ60801/IDQ60801.94255.axf

JavaScript Object Notation format (JSON) in row-major order
http://www.bom.gov.au/fwo/IDQ60801/IDQ60801.94255.json